Barlow, Kentucky
Current Conditions -  °F | °C
As of 10:15 AM on Sunday 25 Jan 2015 (Local Time) from KCIR Reporting Station
Moderate Rain Moderate Rain  
Wind Chill: 38°   Ceiling: 4000
Heat Index: 43°   Visibility: 10mi
Dew Point: 39°   Wind: 8mph
Humidity: 85%   Direction: 200°SSW
Pressure: 29.65"   Gusts: NA
Location:  37.05°N, 89.05°W
Report Text: KCIR 251615Z AUTO 20007KT 10SM RA SCT019 SCT032 OVC040 06/04 A2965 RMK AO2 T00620039
Loading
Personal Weather Stations






























Interactive Weather Map New forecast layout! Learn more

10-Day Weather Forecast

Advertisements
Track Severe Weather on mobile